createdAt,value
2023-12-21T00:00:08.479Z,100733.31
2023-12-21T00:02:35.469Z,100733.16
2023-12-21T00:05:03.392Z,100719.66
2023-12-21T00:07:31.138Z,100710.53
2023-12-21T00:10:02.753Z,100719.13
2023-12-21T00:12:29.611Z,100702.78
2023-12-21T00:14:57.626Z,100686.94
2023-12-21T00:17:25.449Z,100691.25
2023-12-21T00:19:56.385Z,100692.41
2023-12-21T00:22:24.757Z,100688.75
2023-12-21T00:24:51.828Z,100672.75
2023-12-21T00:27:18.901Z,100669.94
2023-12-21T00:29:46.448Z,100665.31
2023-12-21T00:32:13.919Z,100652.09
2023-12-21T00:34:41.029Z,100640.75
2023-12-21T00:37:08.706Z,100638.28
2023-12-21T00:39:35.904Z,100628.53
2023-12-21T00:42:02.901Z,100632.00
2023-12-21T00:44:30.254Z,100624.25
2023-12-21T00:46:57.625Z,100622.72
2023-12-21T00:49:24.817Z,100624.53
2023-12-21T00:51:51.891Z,100622.06
2023-12-21T00:54:19.306Z,100619.25
2023-12-21T00:56:47.876Z,100623.88
2023-12-21T00:59:15.348Z,100617.16
2023-12-21T01:01:42.424Z,100604.94
2023-12-21T01:04:09.532Z,100602.94
2023-12-21T01:06:38.202Z,100607.72
2023-12-21T01:09:05.409Z,100587.94
2023-12-21T01:11:32.579Z,100581.81
2023-12-21T01:13:59.564Z,100583.28
2023-12-21T01:16:27.092Z,100595.66
2023-12-21T01:18:54.270Z,100579.66
2023-12-21T01:21:21.921Z,100565.47
2023-12-21T01:23:51.490Z,100563.44
2023-12-21T01:26:18.676Z,100556.34
2023-12-21T01:28:45.629Z,100553.09
2023-12-21T01:31:12.810Z,100561.16
2023-12-21T01:33:40.092Z,100568.94
2023-12-21T01:36:09.395Z,100557.88
2023-12-21T01:38:36.684Z,100559.50
2023-12-21T01:41:03.521Z,100554.69
2023-12-21T01:43:30.624Z,100537.88
2023-12-21T01:45:59.329Z,100548.25
2023-12-21T01:48:28.517Z,100538.69
2023-12-21T01:50:55.754Z,100538.53
2023-12-21T01:53:23.825Z,100527.31
2023-12-21T01:55:51.052Z,100521.03
2023-12-21T01:58:18.716Z,100525.50
2023-12-21T02:00:46.069Z,100520.88
2023-12-21T02:03:13.126Z,100526.16
2023-12-21T02:05:40.128Z,100513.56
2023-12-21T02:08:07.411Z,100529.91
2023-12-21T02:10:34.699Z,100520.78
2023-12-21T02:13:01.753Z,100527.06
2023-12-21T02:15:29.127Z,100519.16
2023-12-21T02:17:57.853Z,100519.81
2023-12-21T02:20:25.022Z,100502.78
2023-12-21T02:22:52.456Z,100492.84
2023-12-21T02:25:20.618Z,100486.13
2023-12-21T02:27:53.648Z,100474.06
2023-12-21T02:30:21.051Z,100482.28
2023-12-21T02:32:48.466Z,100478.19
2023-12-21T02:35:17.075Z,100472.72
2023-12-21T02:37:44.078Z,100453.59
2023-12-21T02:40:11.443Z,100465.63
2023-12-21T02:42:38.549Z,100458.69
2023-12-21T02:45:06.022Z,100449.97
2023-12-21T02:47:33.131Z,100448.94
2023-12-21T02:50:00.124Z,100442.66
2023-12-21T02:52:27.362Z,100419.56
2023-12-21T02:54:54.403Z,100430.66
2023-12-21T02:57:21.177Z,100434.28
2023-12-21T03:00:01.053Z,100442.22
2023-12-21T03:02:28.082Z,100441.38
2023-12-21T03:04:55.108Z,100455.88
2023-12-21T03:07:22.310Z,100454.88
2023-12-21T03:09:49.124Z,100442.84
2023-12-21T03:12:16.139Z,100436.56
2023-12-21T03:14:43.045Z,100437.56
2023-12-21T03:17:10.496Z,100420.72
2023-12-21T03:19:37.462Z,100422.19
2023-12-21T03:22:04.753Z,100414.06
2023-12-21T03:24:33.033Z,100398.41
2023-12-21T03:27:00.149Z,100387.03
2023-12-21T03:29:27.019Z,100376.63
2023-12-21T03:31:55.728Z,100373.81
2023-12-21T03:34:22.926Z,100370.84
2023-12-21T03:36:50.150Z,100368.84
2023-12-21T03:39:17.475Z,100362.56
2023-12-21T03:41:44.596Z,100365.84
2023-12-21T03:44:11.781Z,100359.56
2023-12-21T03:46:39.037Z,100342.72
2023-12-21T03:49:06.905Z,100342.72
2023-12-21T03:51:34.423Z,100354.72
2023-12-21T03:54:01.174Z,100364.47
2023-12-21T03:56:28.223Z,100347.63
2023-12-21T03:58:54.959Z,100356.19
2023-12-21T04:01:28.106Z,100359.66
2023-12-21T04:04:04.436Z,100381.78
2023-12-21T04:06:31.708Z,100374.84
2023-12-21T04:08:59.156Z,100367.94
2023-12-21T04:11:26.334Z,100354.56
2023-12-21T04:13:57.843Z,100334.41
2023-12-21T04:16:24.963Z,100350.75
2023-12-21T04:18:58.057Z,100346.25
2023-12-21T04:21:25.361Z,100332.25
2023-12-21T04:23:52.182Z,100313.75
2023-12-21T04:26:22.478Z,100311.91
2023-12-21T04:28:54.656Z,100304.19
2023-12-21T04:31:22.630Z,100305.00
2023-12-21T04:33:50.676Z,100276.13
2023-12-21T04:36:19.291Z,100275.84
2023-12-21T04:38:56.026Z,100271.56
2023-12-21T04:41:23.235Z,100285.75
2023-12-21T04:43:50.408Z,100286.59
2023-12-21T04:46:17.493Z,100263.19
2023-12-21T04:48:50.223Z,100254.25
2023-12-21T04:51:17.546Z,100247.50
2023-12-21T04:53:44.835Z,100230.03
2023-12-21T04:56:12.058Z,100236.47
2023-12-21T04:58:53.256Z,100246.03
2023-12-21T05:01:20.446Z,100260.41
2023-12-21T05:03:47.798Z,100265.25
2023-12-21T05:06:15.655Z,100286.00
2023-12-21T05:08:55.283Z,100279.91
2023-12-21T05:11:22.437Z,100275.44
2023-12-21T05:13:49.240Z,100244.56
2023-12-21T05:16:16.354Z,100242.31
2023-12-21T05:18:48.445Z,100242.66
2023-12-21T05:21:15.585Z,100229.09
2023-12-21T05:23:43.055Z,100228.28
2023-12-21T05:26:13.650Z,100226.47
2023-12-21T05:28:49.987Z,100244.75
2023-12-21T05:31:23.815Z,100246.38
2023-12-21T05:33:50.876Z,100232.56
2023-12-21T05:36:22.085Z,100233.38
2023-12-21T05:38:56.391Z,100226.47
2023-12-21T05:41:23.488Z,100230.75
2023-12-21T05:43:50.702Z,100235.22
2023-12-21T05:46:17.748Z,100241.84
2023-12-21T05:48:54.026Z,100229.44
2023-12-21T05:51:21.184Z,100231.28
2023-12-21T05:53:48.354Z,100224.16
2023-12-21T05:56:15.387Z,100235.56
2023-12-21T05:58:51.911Z,100258.50
2023-12-21T06:01:19.420Z,100251.88
2023-12-21T06:03:46.259Z,100256.13
2023-12-21T06:06:14.836Z,100259.81
2023-12-21T06:08:52.203Z,100262.22
2023-12-21T06:11:19.261Z,100262.06
2023-12-21T06:13:46.444Z,100249.50
2023-12-21T06:16:14.522Z,100231.00
2023-12-21T06:18:45.786Z,100198.97
2023-12-21T06:21:12.974Z,100190.03
2023-12-21T06:23:40.331Z,100175.03
2023-12-21T06:26:07.358Z,100156.31
2023-12-21T06:28:35.254Z,100154.88
2023-12-21T06:31:02.505Z,100146.56
2023-12-21T06:33:30.205Z,100158.59
2023-12-21T06:35:57.448Z,100155.75
2023-12-21T06:38:24.228Z,100153.50
2023-12-21T06:40:52.012Z,100161.88
2023-12-21T06:43:20.287Z,100168.78
2023-12-21T06:45:49.215Z,100160.50
2023-12-21T06:48:16.525Z,100150.38
2023-12-21T06:50:43.940Z,100167.66
2023-12-21T06:53:17.137Z,100155.91
2023-12-21T06:55:44.923Z,100147.25
2023-12-21T06:58:12.522Z,100148.50
2023-12-21T07:00:39.556Z,100147.69
2023-12-21T07:03:07.975Z,100159.69
2023-12-21T07:05:35.178Z,100161.16
2023-12-21T07:08:02.593Z,100154.03
2023-12-21T07:10:31.504Z,100155.47
2023-12-21T07:12:59.442Z,100156.53
2023-12-21T07:15:26.248Z,100155.72
2023-12-21T07:17:54.966Z,100153.72
2023-12-21T07:20:26.268Z,100154.97
2023-12-21T07:22:53.592Z,100158.88
2023-12-21T07:25:20.972Z,100161.97
2023-12-21T07:27:48.271Z,100174.00
2023-12-21T07:30:15.859Z,100173.63
2023-12-21T07:32:42.964Z,100161.84
2023-12-21T07:35:10.074Z,100152.09
2023-12-21T07:37:37.253Z,100143.31
2023-12-21T07:40:05.114Z,100147.44
2023-12-21T07:42:32.369Z,100143.16
2023-12-21T07:44:59.471Z,100133.19
2023-12-21T07:47:26.418Z,100150.31
2023-12-21T07:49:53.806Z,100131.59
2023-12-21T07:52:20.958Z,100144.47
2023-12-21T07:54:48.139Z,100125.94
2023-12-21T07:57:16.243Z,100136.88
2023-12-21T07:59:43.015Z,100114.91
2023-12-21T08:02:09.762Z,100116.31
2023-12-21T08:04:36.629Z,100144.41
2023-12-21T08:07:03.481Z,100137.47
2023-12-21T08:09:30.619Z,100135.56
2023-12-21T08:11:57.403Z,100137.22
2023-12-21T08:14:27.913Z,100140.03
2023-12-21T08:16:55.017Z,100130.09
2023-12-21T08:19:22.809Z,100120.34
2023-12-21T08:21:49.644Z,100111.78
2023-12-21T08:24:16.503Z,100112.00
2023-12-21T08:26:43.362Z,100112.81
2023-12-21T08:29:16.728Z,100109.94
2023-12-21T08:31:43.957Z,100102.59
2023-12-21T08:34:12.674Z,100096.31
2023-12-21T08:36:39.756Z,100097.31
2023-12-21T08:39:09.802Z,100100.78
2023-12-21T08:41:37.719Z,100110.97
2023-12-21T08:44:04.599Z,100103.03
2023-12-21T08:46:31.443Z,100102.41
2023-12-21T08:48:58.959Z,100102.22
2023-12-21T08:51:25.781Z,100108.13
2023-12-21T08:53:52.728Z,100100.84
2023-12-21T08:56:19.490Z,100114.88
2023-12-21T08:58:50.009Z,100134.00
2023-12-21T09:01:16.940Z,100110.19
2023-12-21T09:03:45.044Z,100126.47
2023-12-21T09:06:12.006Z,100126.06
2023-12-21T09:08:42.718Z,100121.78
2023-12-21T09:11:09.567Z,100123.63
2023-12-21T09:13:36.365Z,100126.88
2023-12-21T09:16:03.432Z,100114.91
2023-12-21T09:18:30.322Z,100127.75
2023-12-21T09:20:57.838Z,100133.47
2023-12-21T09:23:24.548Z,100114.78
2023-12-21T09:25:53.262Z,100112.97
2023-12-21T09:28:20.522Z,100121.72
2023-12-21T09:30:47.670Z,100109.09
2023-12-21T09:33:14.548Z,100123.16
2023-12-21T09:35:41.349Z,100134.97
2023-12-21T09:38:12.051Z,100143.91
2023-12-21T09:40:39.380Z,100140.25
2023-12-21T09:43:12.490Z,100149.03
2023-12-21T09:45:42.921Z,100152.09
2023-12-21T09:48:11.251Z,100170.06
2023-12-21T09:50:38.507Z,100159.66
2023-12-21T09:53:06.021Z,100161.91
2023-12-21T09:55:33.550Z,100170.31
2023-12-21T09:58:00.521Z,100176.59
2023-12-21T10:00:27.478Z,100187.19
2023-12-21T10:02:54.643Z,100190.41
2023-12-21T10:05:21.556Z,100183.47
2023-12-21T10:07:48.368Z,100186.94
2023-12-21T10:10:15.844Z,100182.47
2023-12-21T10:12:44.663Z,100172.69
2023-12-21T10:15:11.808Z,100173.31
2023-12-21T10:17:39.707Z,100151.97
2023-12-21T10:20:08.490Z,100157.69
2023-12-21T10:22:35.747Z,100156.84
2023-12-21T10:25:02.703Z,100150.38
2023-12-21T10:27:30.896Z,100155.03
2023-12-21T10:30:00.099Z,100151.19
2023-12-21T10:32:26.998Z,100143.25
2023-12-21T10:35:00.002Z,100146.31
2023-12-21T10:37:27.359Z,100138.19
2023-12-21T10:39:54.674Z,100149.41
2023-12-21T10:42:22.001Z,100152.03
2023-12-21T10:44:49.214Z,100145.75
2023-12-21T10:47:18.212Z,100160.44
2023-12-21T10:49:45.778Z,100144.09
2023-12-21T10:52:16.928Z,100140.69
2023-12-21T10:54:44.042Z,100137.03
2023-12-21T10:57:11.448Z,100132.19
2023-12-21T10:59:38.556Z,100137.72
2023-12-21T11:02:05.597Z,100126.53
2023-12-21T11:04:33.646Z,100135.75
2023-12-21T11:07:00.806Z,100122.53
2023-12-21T11:09:33.246Z,100121.34
2023-12-21T11:12:00.114Z,100110.75
2023-12-21T11:14:27.151Z,100116.25
2023-12-21T11:16:55.846Z,100122.78
2023-12-21T11:19:37.078Z,100122.59
2023-12-21T11:22:05.624Z,100130.34
2023-12-21T11:24:32.758Z,100124.03
2023-12-21T11:27:01.247Z,100136.91
2023-12-21T11:29:41.095Z,100128.34
2023-12-21T11:32:08.134Z,100120.81
2023-12-21T11:34:41.618Z,100110.03
2023-12-21T11:37:30.714Z,100117.56
2023-12-21T11:40:01.282Z,100125.94
2023-12-21T11:42:38.030Z,100126.75
2023-12-21T11:45:05.724Z,100128.38
2023-12-21T11:47:32.709Z,100134.50
2023-12-21T11:50:19.607Z,100136.16
2023-12-21T11:52:48.549Z,100160.00
2023-12-21T11:55:26.674Z,100144.09
2023-12-21T11:58:12.854Z,100155.06
2023-12-21T12:00:45.163Z,100159.59
2023-12-21T12:03:12.700Z,100165.72
2023-12-21T12:05:39.783Z,100159.78
2023-12-21T12:08:07.012Z,100169.81
2023-12-21T12:10:34.438Z,100152.88
2023-12-21T12:13:02.531Z,100159.44
2023-12-21T12:15:29.598Z,100158.00
2023-12-21T12:17:56.543Z,100165.97
2023-12-21T12:20:25.792Z,100164.94
2023-12-21T12:22:54.023Z,100156.81
2023-12-21T12:25:21.834Z,100156.41
2023-12-21T12:27:49.486Z,100148.25
2023-12-21T12:30:19.659Z,100156.03
2023-12-21T12:32:47.128Z,100162.34
2023-12-21T12:35:14.778Z,100184.34
2023-12-21T12:37:41.893Z,100155.59
2023-12-21T12:40:09.352Z,100178.66
2023-12-21T12:42:36.807Z,100160.09
2023-12-21T12:45:05.373Z,100152.34
2023-12-21T12:47:32.655Z,100152.53
2023-12-21T12:50:00.542Z,100165.97
2023-12-21T12:52:27.377Z,100164.34
2023-12-21T12:54:54.189Z,100167.81
2023-12-21T12:57:25.709Z,100168.63
2023-12-21T12:59:52.563Z,100170.66
2023-12-21T13:02:19.821Z,100185.56
2023-12-21T13:04:46.803Z,100176.97
2023-12-21T13:07:13.636Z,100186.94
2023-12-21T13:09:40.513Z,100180.03
2023-12-21T13:12:07.582Z,100179.22
2023-12-21T13:14:34.354Z,100175.34
2023-12-21T13:17:01.132Z,100171.03
2023-12-21T13:19:28.396Z,100167.19
2023-12-21T13:21:56.917Z,100161.91
2023-12-21T13:24:23.961Z,100182.50
2023-12-21T13:26:52.700Z,100174.53
2023-12-21T13:29:20.019Z,100165.41
2023-12-21T13:31:47.201Z,100171.47
2023-12-21T13:34:14.717Z,100167.63
2023-12-21T13:36:42.475Z,100193.13
2023-12-21T13:39:09.307Z,100178.66
2023-12-21T13:41:36.094Z,100185.81
2023-12-21T13:44:03.122Z,100157.28
2023-12-21T13:46:29.983Z,100186.22
2023-12-21T13:48:57.042Z,100181.97
2023-12-21T13:51:23.900Z,100179.88
2023-12-21T13:53:51.300Z,100190.28
2023-12-21T13:56:18.243Z,100194.59
2023-12-21T13:58:48.630Z,100193.75
2023-12-21T14:01:22.232Z,100203.97
2023-12-21T14:03:54.244Z,100188.47
2023-12-21T14:06:21.999Z,100191.09
2023-12-21T14:08:52.814Z,100196.41
2023-12-21T14:11:21.731Z,100203.53
2023-12-21T14:13:48.731Z,100188.66
2023-12-21T14:16:15.522Z,100193.94
2023-12-21T14:18:48.227Z,100193.53
2023-12-21T14:21:15.781Z,100187.41
2023-12-21T14:32:42.318Z,100216.94
2023-12-21T14:35:09.769Z,100233.69
2023-12-21T14:37:38.346Z,100218.78
2023-12-21T14:40:05.852Z,100228.16
2023-12-21T14:42:33.110Z,100250.16
2023-12-21T14:45:00.634Z,100233.03
2023-12-21T14:47:31.642Z,100224.25
2023-12-21T14:49:58.918Z,100235.69
2023-12-21T14:52:26.176Z,100240.13
2023-12-21T14:54:53.909Z,100236.84
2023-12-21T14:57:20.967Z,100231.75
2023-12-21T14:59:48.393Z,100243.78
2023-12-21T15:02:15.195Z,100256.63
2023-12-21T15:04:42.085Z,100254.97
2023-12-21T15:07:08.987Z,100252.72
2023-12-21T15:09:37.439Z,100231.50
2023-12-21T15:12:04.901Z,100244.31
2023-12-21T15:14:32.900Z,100258.50
2023-12-21T15:17:00.808Z,100255.03
2023-12-21T15:19:32.912Z,100239.97
2023-12-21T15:22:01.952Z,100259.50
2023-12-21T15:24:31.135Z,100256.41
2023-12-21T15:26:59.094Z,100260.03
2023-12-21T15:29:27.767Z,100262.63
2023-12-21T15:31:54.590Z,100264.66
2023-12-21T15:34:21.528Z,100259.72
2023-12-21T15:36:48.454Z,100259.72
2023-12-21T15:39:19.284Z,100270.53
2023-12-21T15:41:46.756Z,100285.59
2023-12-21T15:44:13.602Z,100273.38
2023-12-21T15:46:41.096Z,100272.53
2023-12-21T15:49:08.344Z,100277.84
2023-12-21T15:51:35.340Z,100288.44
2023-12-21T15:54:02.202Z,100285.78
2023-12-21T15:56:29.078Z,100300.66
2023-12-21T15:58:59.045Z,100293.72
2023-12-21T16:01:26.153Z,100301.47
2023-12-21T16:03:53.153Z,100306.78
2023-12-21T16:06:21.133Z,100317.38
2023-12-21T16:09:03.805Z,100302.47
2023-12-21T16:11:30.707Z,100312.88
2023-12-21T16:13:57.881Z,100307.59
2023-12-21T16:16:24.726Z,100306.56
2023-12-21T16:18:58.310Z,100321.63
2023-12-21T16:21:25.237Z,100316.91
2023-12-21T16:23:52.222Z,100324.84
2023-12-21T16:26:19.285Z,100349.50
2023-12-21T16:28:49.197Z,100330.97
2023-12-21T16:31:16.186Z,100353.16
2023-12-21T16:33:43.150Z,100352.13
2023-12-21T16:36:10.723Z,100349.06
2023-12-21T16:38:41.456Z,100333.81
2023-12-21T16:41:08.369Z,100355.34
2023-12-21T16:43:35.810Z,100339.66
2023-12-21T16:46:04.981Z,100343.06
2023-12-21T16:48:32.145Z,100353.00
2023-12-21T16:50:59.227Z,100341.97
2023-12-21T16:53:27.224Z,100356.22
2023-12-21T16:55:54.303Z,100341.16
2023-12-21T16:58:23.215Z,100344.97
2023-12-21T17:00:50.549Z,100355.56
2023-12-21T17:03:18.223Z,100353.31
2023-12-21T17:05:45.148Z,100365.72
2023-12-21T17:08:12.170Z,100366.38
2023-12-21T17:10:39.010Z,100363.72
2023-12-21T17:13:05.800Z,100354.56
2023-12-21T17:15:33.900Z,100372.91
2023-12-21T17:18:04.683Z,100369.25
2023-12-21T17:20:32.452Z,100377.19
2023-12-21T17:23:01.238Z,100381.47
2023-12-21T17:25:28.618Z,100396.91
2023-12-21T17:27:57.244Z,100392.34
2023-12-21T17:30:26.417Z,100410.06
2023-12-21T17:32:53.554Z,100428.41
2023-12-21T17:35:20.691Z,100425.31
2023-12-21T17:37:48.068Z,100439.72
2023-12-21T17:40:16.529Z,100446.22
2023-12-21T17:42:43.759Z,100439.28
2023-12-21T17:45:11.357Z,100445.56
2023-12-21T17:47:38.708Z,100440.47
2023-12-21T17:50:06.735Z,100438.63
2023-12-21T17:52:34.166Z,100455.72
2023-12-21T17:55:01.165Z,100453.41
2023-12-21T17:57:28.398Z,100442.41
2023-12-21T17:59:58.356Z,100453.78
2023-12-21T18:02:25.337Z,100470.50
2023-12-21T18:04:53.051Z,100458.44
2023-12-21T18:07:22.510Z,100462.13
2023-12-21T18:09:51.214Z,100445.03
2023-12-21T18:12:18.130Z,100455.00
2023-12-21T18:14:45.055Z,100458.00
2023-12-21T18:17:12.269Z,100457.16
2023-12-21T18:19:39.348Z,100464.28
2023-12-21T18:22:08.206Z,100472.59
2023-12-21T18:24:35.953Z,100489.63
2023-12-21T18:27:03.316Z,100490.03
2023-12-21T18:29:30.379Z,100495.31
2023-12-21T18:31:59.222Z,100506.72
2023-12-21T18:34:26.166Z,100494.66
2023-12-21T18:36:53.190Z,100509.06
2023-12-21T18:39:20.147Z,100542.81
2023-12-21T18:41:47.212Z,100548.09
2023-12-21T18:44:14.412Z,100546.47
2023-12-21T18:46:42.758Z,100544.81
2023-12-21T18:49:13.251Z,100543.19
2023-12-21T18:51:40.386Z,100540.53
2023-12-21T18:54:08.003Z,100520.38
2023-12-21T18:56:35.269Z,100534.69
2023-12-21T18:59:04.726Z,100556.81
2023-12-21T19:01:31.857Z,100560.84
2023-12-21T19:04:01.262Z,100555.38
2023-12-21T19:06:29.490Z,100548.06
2023-12-21T19:09:03.522Z,100547.25
2023-12-21T19:11:30.404Z,100551.72
2023-12-21T19:13:58.330Z,100566.94
2023-12-21T19:16:25.689Z,100555.38
2023-12-21T19:18:58.976Z,100541.34
2023-12-21T19:21:26.418Z,100533.75
2023-12-21T19:23:53.307Z,100530.47
2023-12-21T19:26:20.307Z,100529.47
2023-12-21T19:28:56.512Z,100551.44
2023-12-21T19:31:24.402Z,100554.91
2023-12-21T19:33:51.357Z,100554.44
2023-12-21T19:36:18.491Z,100559.28
2023-12-21T19:38:55.265Z,100574.59
2023-12-21T19:41:22.680Z,100564.63
2023-12-21T19:43:49.666Z,100579.88
2023-12-21T19:46:17.899Z,100568.19
2023-12-21T19:48:57.658Z,100568.72
2023-12-21T19:51:25.558Z,100576.00
2023-12-21T19:53:52.487Z,100571.53
2023-12-21T19:56:19.992Z,100579.47
2023-12-21T19:58:53.534Z,100580.66
2023-12-21T20:01:20.625Z,100582.53
2023-12-21T20:03:47.517Z,100593.28
2023-12-21T20:06:14.373Z,100601.03
2023-12-21T20:08:48.202Z,100596.75
2023-12-21T20:11:15.058Z,100589.47
2023-12-21T20:13:42.155Z,100586.00
2023-12-21T20:16:12.746Z,100583.19
2023-12-21T20:18:42.999Z,100583.53
2023-12-21T20:21:10.505Z,100581.06
2023-12-21T20:23:37.491Z,100584.72
2023-12-21T20:26:04.537Z,100581.25
2023-12-21T20:28:31.449Z,100578.25
2023-12-21T20:30:58.459Z,100571.31
2023-12-21T20:33:25.516Z,100563.56
2023-12-21T20:35:52.380Z,100568.69
2023-12-21T20:38:19.626Z,100575.41
2023-12-21T20:40:46.564Z,100572.63
2023-12-21T20:43:16.550Z,100598.66
2023-12-21T20:45:43.584Z,100619.19
2023-12-21T20:48:10.514Z,100619.19
2023-12-21T20:50:37.599Z,100627.94
2023-12-21T20:53:05.055Z,100630.59
2023-12-21T20:55:32.387Z,100626.28
2023-12-21T20:57:59.875Z,100606.50
2023-12-21T21:00:26.660Z,100597.47
2023-12-21T21:02:55.342Z,100609.38
2023-12-21T21:05:23.111Z,100618.63
2023-12-21T21:07:50.530Z,100629.56
2023-12-21T21:10:17.964Z,100641.25
2023-12-21T21:12:44.789Z,100655.63
2023-12-21T21:15:11.878Z,100655.81
2023-12-21T21:17:39.145Z,100657.16
2023-12-21T21:20:06.470Z,100661.44
2023-12-21T21:22:33.549Z,100637.38
2023-12-21T21:25:00.637Z,100633.25
2023-12-21T21:27:27.754Z,100642.00
2023-12-21T21:29:54.639Z,100627.97
2023-12-21T21:32:23.306Z,100638.19
2023-12-21T21:34:50.316Z,100623.34
2023-12-21T21:37:17.207Z,100637.69
2023-12-21T21:39:45.182Z,100642.19
2023-12-21T21:42:12.316Z,100629.97
2023-12-21T21:44:39.313Z,100649.44
2023-12-21T21:47:06.177Z,100656.53
2023-12-21T21:49:34.149Z,100642.34
2023-12-21T21:52:01.061Z,100635.25
2023-12-21T21:54:28.481Z,100651.56
2023-12-21T21:56:55.250Z,100666.41
2023-12-21T21:59:22.210Z,100661.97
2023-12-21T22:01:49.350Z,100669.88
2023-12-21T22:04:20.612Z,100645.28
2023-12-21T22:06:47.868Z,100642.66
2023-12-21T22:09:16.765Z,100652.75
2023-12-21T22:11:43.842Z,100650.91
2023-12-21T22:14:11.969Z,100668.59
2023-12-21T22:16:39.140Z,100679.16
2023-12-21T22:19:09.243Z,100673.38
2023-12-21T22:21:36.247Z,100692.84
2023-12-21T22:24:03.684Z,100687.75
2023-12-21T22:26:31.256Z,100679.34
2023-12-21T22:29:01.176Z,100661.03
2023-12-21T22:31:28.230Z,100657.56
2023-12-21T22:33:56.654Z,100645.38
2023-12-21T22:36:23.676Z,100656.28
2023-12-21T22:38:51.084Z,100673.28
2023-12-21T22:41:18.138Z,100665.34
2023-12-21T22:43:45.039Z,100673.09
2023-12-21T22:46:12.265Z,100670.63
2023-12-21T22:48:47.111Z,100662.88
2023-12-21T22:51:14.046Z,100652.50
2023-12-21T22:53:40.981Z,100672.81
2023-12-21T22:56:07.838Z,100686.16
2023-12-21T22:58:34.837Z,100686.31
2023-12-21T23:01:01.683Z,100686.31
2023-12-21T23:03:28.819Z,100688.47
2023-12-21T23:05:56.037Z,100683.56
2023-12-21T23:08:22.925Z,100673.00
2023-12-21T23:10:50.058Z,100657.69
2023-12-21T23:13:20.073Z,100666.56
2023-12-21T23:15:47.055Z,100676.31
2023-12-21T23:18:14.251Z,100672.38
2023-12-21T23:20:41.279Z,100696.94
2023-12-21T23:23:08.236Z,100694.63
2023-12-21T23:25:35.177Z,100686.25
2023-12-21T23:28:02.366Z,100696.94
2023-12-21T23:30:29.304Z,100684.09
2023-12-21T23:32:56.231Z,100700.09
2023-12-21T23:35:24.006Z,100705.38
2023-12-21T23:37:51.693Z,100703.72
2023-12-21T23:40:19.053Z,100692.69
2023-12-21T23:42:46.359Z,100684.78
2023-12-21T23:45:15.145Z,100704.22
2023-12-21T23:47:42.317Z,100710.31
2023-12-21T23:50:09.781Z,100701.59
2023-12-21T23:52:37.218Z,100700.13
2023-12-21T23:55:05.025Z,100689.88
2023-12-21T23:57:31.867Z,100691.06
2023-12-21T23:59:58.648Z,100687.75
